sensor_id;sensor_type;location;lat;lon;timestamp;pressure;altitude;pressure_sealevel;temperature;humidity
60101;BME280;45978;53.646;55.930;2022-08-02T00:00:42;99301.63;;;17.64;83.41
60101;BME280;45978;53.646;55.930;2022-08-02T00:01:43;99305.09;;;17.64;83.40
60101;BME280;45978;53.646;55.930;2022-08-02T00:02:46;99306.91;;;17.64;83.43
60101;BME280;45978;53.646;55.930;2022-08-02T00:03:48;99308.59;;;17.65;83.11
60101;BME280;45978;53.646;55.930;2022-08-02T00:04:50;99300.97;;;17.60;83.00
60101;BME280;45978;53.646;55.930;2022-08-02T00:05:51;99305.34;;;17.61;82.91
60101;BME280;45978;53.646;55.930;2022-08-02T00:06:53;99313.31;;;17.61;83.04
60101;BME280;45978;53.646;55.930;2022-08-02T00:07:54;99314.03;;;17.63;82.71
60101;BME280;45978;53.646;55.930;2022-08-02T00:08:55;99306.06;;;17.63;83.06
60101;BME280;45978;53.646;55.930;2022-08-02T00:09:57;99312.44;;;17.60;82.94
60101;BME280;45978;53.646;55.930;2022-08-02T00:10:58;99314.22;;;17.60;82.76
60101;BME280;45978;53.646;55.930;2022-08-02T00:12:00;99308.00;;;17.61;82.53
60101;BME280;45978;53.646;55.930;2022-08-02T00:13:01;99308.59;;;17.65;82.66
60101;BME280;45978;53.646;55.930;2022-08-02T00:14:03;99308.41;;;17.68;82.73
60101;BME280;45978;53.646;55.930;2022-08-02T00:15:05;99302.78;;;17.72;82.84
60101;BME280;45978;53.646;55.930;2022-08-02T00:16:07;99305.56;;;17.71;82.59
60101;BME280;45978;53.646;55.930;2022-08-02T00:17:08;99301.09;;;17.71;82.38
60101;BME280;45978;53.646;55.930;2022-08-02T00:18:10;99305.34;;;17.74;82.40
60101;BME280;45978;53.646;55.930;2022-08-02T00:19:11;99308.09;;;17.72;82.58
60101;BME280;45978;53.646;55.930;2022-08-02T00:20:12;99308.09;;;17.72;82.45
60101;BME280;45978;53.646;55.930;2022-08-02T00:21:14;99307.25;;;17.72;82.67
60101;BME280;45978;53.646;55.930;2022-08-02T00:22:16;99308.22;;;17.71;82.92
60101;BME280;45978;53.646;55.930;2022-08-02T00:23:17;99309.25;;;17.68;82.64
60101;BME280;45978;53.646;55.930;2022-08-02T00:24:18;99314.66;;;17.67;83.00
60101;BME280;45978;53.646;55.930;2022-08-02T00:25:20;99311.38;;;17.63;82.96
60101;BME280;45978;53.646;55.930;2022-08-02T00:26:21;99315.81;;;17.62;83.16
60101;BME280;45978;53.646;55.930;2022-08-02T00:27:23;99317.09;;;17.57;83.04
60101;BME280;45978;53.646;55.930;2022-08-02T00:28:25;99313.59;;;17.56;83.30
60101;BME280;45978;53.646;55.930;2022-08-02T00:29:26;99321.63;;;17.55;83.13
60101;BME280;45978;53.646;55.930;2022-08-02T00:30:27;99311.56;;;17.47;83.17
60101;BME280;45978;53.646;55.930;2022-08-02T00:31:29;99322.91;;;17.49;83.27
60101;BME280;45978;53.646;55.930;2022-08-02T00:32:31;99329.91;;;17.50;83.82
60101;BME280;45978;53.646;55.930;2022-08-02T00:33:33;99324.59;;;17.50;83.95
60101;BME280;45978;53.646;55.930;2022-08-02T00:34:35;99330.97;;;17.48;83.98
60101;BME280;45978;53.646;55.930;2022-08-02T00:35:38;99326.41;;;17.50;84.18
60101;BME280;45978;53.646;55.930;2022-08-02T00:36:39;99323.75;;;17.50;83.96
60101;BME280;45978;53.646;55.930;2022-08-02T00:37:40;99329.16;;;17.48;84.20
60101;BME280;45978;53.646;55.930;2022-08-02T00:38:43;99328.09;;;17.51;83.86
60101;BME280;45978;53.646;55.930;2022-08-02T00:39:44;99327.25;;;17.50;84.02
60101;BME280;45978;53.646;55.930;2022-08-02T00:40:50;99327.91;;;17.54;84.12
60101;BME280;45978;53.646;55.930;2022-08-02T00:41:52;99327.91;;;17.54;84.23
60101;BME280;45978;53.646;55.930;2022-08-02T00:43:08;99329.59;;;17.55;84.52
60101;BME280;45978;53.646;55.930;2022-08-02T00:44:09;99310.81;;;17.45;84.32
60101;BME280;45978;53.646;55.930;2022-08-02T00:45:10;99326.09;;;17.54;84.29
60101;BME280;45978;53.646;55.930;2022-08-02T00:46:12;99324.41;;;17.53;84.36
60101;BME280;45978;53.646;55.930;2022-08-02T00:47:14;99326.00;;;17.56;84.18
60101;BME280;45978;53.646;55.930;2022-08-02T00:48:15;99334.31;;;17.64;84.55
60101;BME280;45978;53.646;55.930;2022-08-02T00:49:16;99322.84;;;17.64;84.19
60101;BME280;45978;53.646;55.930;2022-08-02T00:50:18;99332.22;;;17.69;83.84
60101;BME280;45978;53.646;55.930;2022-08-02T00:51:20;99329.34;;;17.72;83.75
60101;BME280;45978;53.646;55.930;2022-08-02T00:52:22;99325.84;;;17.72;83.56
60101;BME280;45978;53.646;55.930;2022-08-02T00:53:24;99327.66;;;17.71;83.73
60101;BME280;45978;53.646;55.930;2022-08-02T00:54:25;99333.50;;;17.76;83.07
60101;BME280;45978;53.646;55.930;2022-08-02T00:55:28;99335.03;;;17.80;83.46
60101;BME280;45978;53.646;55.930;2022-08-02T00:56:29;99327.81;;;17.83;83.40
60101;BME280;45978;53.646;55.930;2022-08-02T00:57:31;99333.13;;;17.83;83.22
60101;BME280;45978;53.646;55.930;2022-08-02T00:58:32;99331.72;;;17.77;83.12
60101;BME280;45978;53.646;55.930;2022-08-02T00:59:33;99338.06;;;17.74;83.07
60101;BME280;45978;53.646;55.930;2022-08-02T01:00:35;99332.88;;;17.73;83.15
60101;BME280;45978;53.646;55.930;2022-08-02T01:01:37;99336.47;;;17.72;83.17
60101;BME280;45978;53.646;55.930;2022-08-02T01:02:38;99332.66;;;17.76;83.31
60101;BME280;45978;53.646;55.930;2022-08-02T01:03:39;99331.59;;;17.78;83.09
60101;BME280;45978;53.646;55.930;2022-08-02T01:04:41;99329.72;;;17.80;83.24
60101;BME280;45978;53.646;55.930;2022-08-02T01:05:42;99337.50;;;17.84;83.11
60101;BME280;45978;53.646;55.930;2022-08-02T01:06:46;99333.97;;;17.83;82.93
60101;BME280;45978;53.646;55.930;2022-08-02T01:07:47;99332.19;;;17.84;82.81
60101;BME280;45978;53.646;55.930;2022-08-02T01:08:49;99340.16;;;17.84;82.63
60101;BME280;45978;53.646;55.930;2022-08-02T01:09:50;99340.91;;;17.86;82.94
60101;BME280;45978;53.646;55.930;2022-08-02T01:10:53;99342.50;;;17.88;82.83
60101;BME280;45978;53.646;55.930;2022-08-02T01:11:54;99345.06;;;17.90;83.04
60101;BME280;45978;53.646;55.930;2022-08-02T01:12:55;99342.28;;;17.91;82.59
60101;BME280;45978;53.646;55.930;2022-08-02T01:14:01;99342.94;;;17.95;82.55
60101;BME280;45978;53.646;55.930;2022-08-02T01:15:08;99338.47;;;17.95;82.44
60101;BME280;45978;53.646;55.930;2022-08-02T01:16:22;99341.03;;;17.97;82.53
60101;BME280;45978;53.646;55.930;2022-08-02T01:18:54;99338.56;;;17.94;82.70
60101;BME280;45978;53.646;55.930;2022-08-02T01:21:32;99340.06;;;17.98;82.80
60101;BME280;45978;53.646;55.930;2022-08-02T01:25:19;99342.88;;;18.09;82.45
60101;BME280;45978;53.646;55.930;2022-08-02T01:28:22;99349.56;;;18.15;82.33
60101;BME280;45978;53.646;55.930;2022-08-02T01:29:36;99345.84;;;18.17;82.16
60101;BME280;45978;53.646;55.930;2022-08-02T01:30:41;99346.59;;;18.19;81.95
60101;BME280;45978;53.646;55.930;2022-08-02T01:32:10;99334.28;;;18.18;82.24
60101;BME280;45978;53.646;55.930;2022-08-02T01:33:16;99341.72;;;18.26;82.11
60101;BME280;45978;53.646;55.930;2022-08-02T01:35:51;99345.13;;;18.28;82.10
60101;BME280;45978;53.646;55.930;2022-08-02T01:37:19;99345.56;;;18.35;82.01
60101;BME280;45978;53.646;55.930;2022-08-02T01:38:31;99347.91;;;18.39;81.83
60101;BME280;45978;53.646;55.930;2022-08-02T01:39:37;99348.31;;;18.46;81.82
60101;BME280;45978;53.646;55.930;2022-08-02T01:40:41;99347.91;;;18.52;81.59
60101;BME280;45978;53.646;55.930;2022-08-02T01:41:45;99354.72;;;18.56;81.59
60101;BME280;45978;53.646;55.930;2022-08-02T01:42:50;99351.72;;;18.61;81.32
60101;BME280;45978;53.646;55.930;2022-08-02T01:43:56;99348.94;;;18.63;81.22
60101;BME280;45978;53.646;55.930;2022-08-02T01:45:01;99357.56;;;18.66;81.20
60101;BME280;45978;53.646;55.930;2022-08-02T01:46:04;99365.22;;;18.71;80.96
60101;BME280;45978;53.646;55.930;2022-08-02T01:47:10;99356.84;;;18.77;80.78
60101;BME280;45978;53.646;55.930;2022-08-02T01:48:18;99359.38;;;18.78;80.78
60101;BME280;45978;53.646;55.930;2022-08-02T01:49:22;99361.03;;;18.81;80.88
60101;BME280;45978;53.646;55.930;2022-08-02T01:50:27;99359.09;;;18.83;80.69
60101;BME280;45978;53.646;55.930;2022-08-02T01:51:30;99358.13;;;18.84;80.47
60101;BME280;45978;53.646;55.930;2022-08-02T01:52:54;99359.19;;;18.82;80.30
60101;BME280;45978;53.646;55.930;2022-08-02T01:53:57;99365.25;;;18.84;80.37
60101;BME280;45978;53.646;55.930;2022-08-02T01:55:02;99359.38;;;18.78;80.42
60101;BME280;45978;53.646;55.930;2022-08-02T01:56:04;99369.84;;;18.82;80.20
60101;BME280;45978;53.646;55.930;2022-08-02T01:57:09;99368.88;;;18.83;80.36
60101;BME280;45978;53.646;55.930;2022-08-02T01:58:15;99369.09;;;18.79;80.27
60101;BME280;45978;53.646;55.930;2022-08-02T01:59:20;99366.50;;;18.78;80.26
60101;BME280;45978;53.646;55.930;2022-08-02T02:00:25;99365.97;;;18.73;80.26
60101;BME280;45978;53.646;55.930;2022-08-02T02:01:30;99373.00;;;18.74;80.27
60101;BME280;45978;53.646;55.930;2022-08-02T02:02:41;99378.53;;;18.71;80.18
60101;BME280;45978;53.646;55.930;2022-08-02T02:03:43;99375.88;;;18.71;80.43
60101;BME280;45978;53.646;55.930;2022-08-02T02:04:45;99373.44;;;18.68;80.59
60101;BME280;45978;53.646;55.930;2022-08-02T02:05:48;99376.59;;;18.73;80.37
60101;BME280;45978;53.646;55.930;2022-08-02T02:06:52;99372.47;;;18.69;80.41
60101;BME280;45978;53.646;55.930;2022-08-02T02:07:57;99381.41;;;18.68;80.42
60101;BME280;45978;53.646;55.930;2022-08-02T02:08:59;99384.06;;;18.68;80.53
60101;BME280;45978;53.646;55.930;2022-08-02T02:10:02;99377.91;;;18.67;80.53
60101;BME280;45978;53.646;55.930;2022-08-02T02:11:05;99381.31;;;18.69;80.42
60101;BME280;45978;53.646;55.930;2022-08-02T02:12:07;99381.19;;;18.71;80.56
60101;BME280;45978;53.646;55.930;2022-08-02T02:13:18;99381.94;;;18.73;80.43
60101;BME280;45978;53.646;55.930;2022-08-02T02:14:23;99383.66;;;18.74;80.26
60101;BME280;45978;53.646;55.930;2022-08-02T02:15:27;99381.63;;;18.65;80.43
60101;BME280;45978;53.646;55.930;2022-08-02T02:16:31;99369.94;;;18.42;80.77
60101;BME280;45978;53.646;55.930;2022-08-02T02:17:35;99378.41;;;18.47;81.13
60101;BME280;45978;53.646;55.930;2022-08-02T02:19:03;99393.44;;;18.48;81.39
60101;BME280;45978;53.646;55.930;2022-08-02T02:20:18;99375.66;;;18.48;81.36
60101;BME280;45978;53.646;55.930;2022-08-02T02:21:20;99374.91;;;18.46;81.21
60101;BME280;45978;53.646;55.930;2022-08-02T02:22:22;99368.34;;;18.52;81.06
60101;BME280;45978;53.646;55.930;2022-08-02T02:23:23;99383.44;;;18.64;80.98
60101;BME280;45978;53.646;55.930;2022-08-02T02:24:24;99376.44;;;18.63;80.93
60101;BME280;45978;53.646;55.930;2022-08-02T02:25:26;99367.06;;;18.57;80.80
60101;BME280;45978;53.646;55.930;2022-08-02T02:26:32;99377.69;;;18.70;80.65
60101;BME280;45978;53.646;55.930;2022-08-02T02:27:49;99376.84;;;18.70;80.61
60101;BME280;45978;53.646;55.930;2022-08-02T02:28:54;99380.97;;;18.74;80.49
60101;BME280;45978;53.646;55.930;2022-08-02T02:29:56;99384.19;;;18.79;80.21
60101;BME280;45978;53.646;55.930;2022-08-02T02:31:17;99384.09;;;18.80;79.91
60101;BME280;45978;53.646;55.930;2022-08-02T02:32:20;99384.72;;;18.84;79.88
60101;BME280;45978;53.646;55.930;2022-08-02T02:33:23;99375.56;;;18.75;79.69
60101;BME280;45978;53.646;55.930;2022-08-02T02:34:28;99386.44;;;18.85;79.47
60101;BME280;45978;53.646;55.930;2022-08-02T02:35:36;99385.38;;;18.88;79.59
60101;BME280;45978;53.646;55.930;2022-08-02T02:36:41;99384.28;;;18.90;79.52
60101;BME280;45978;53.646;55.930;2022-08-02T02:37:47;99385.28;;;18.89;79.54
60101;BME280;45978;53.646;55.930;2022-08-02T02:38:50;99383.69;;;18.87;79.70
60101;BME280;45978;53.646;55.930;2022-08-02T02:39:54;99394.94;;;18.90;79.48
60101;BME280;45978;53.646;55.930;2022-08-02T02:40:59;99384.94;;;18.94;79.36
60101;BME280;45978;53.646;55.930;2022-08-02T02:42:02;99385.16;;;18.91;79.37
60101;BME280;45978;53.646;55.930;2022-08-02T02:43:09;99396.22;;;18.97;79.23
60101;BME280;45978;53.646;55.930;2022-08-02T02:44:15;99402.09;;;19.03;79.19
60101;BME280;45978;53.646;55.930;2022-08-02T02:45:19;99390.34;;;18.92;79.15
60101;BME280;45978;53.646;55.930;2022-08-02T02:46:21;99393.25;;;18.89;79.09
60101;BME280;45978;53.646;55.930;2022-08-02T02:47:23;99400.50;;;18.87;79.06
60101;BME280;45978;53.646;55.930;2022-08-02T02:48:29;99396.84;;;18.88;79.18
60101;BME280;45978;53.646;55.930;2022-08-02T02:49:32;99381.53;;;18.79;79.13
60101;BME280;45978;53.646;55.930;2022-08-02T02:50:36;99397.94;;;18.86;79.31
60101;BME280;45978;53.646;55.930;2022-08-02T02:51:41;99397.28;;;18.82;79.41
60101;BME280;45978;53.646;55.930;2022-08-02T02:52:45;99395.91;;;18.89;79.30
60101;BME280;45978;53.646;55.930;2022-08-02T02:53:49;99396.41;;;18.94;79.42
60101;BME280;45978;53.646;55.930;2022-08-02T02:54:51;99391.44;;;18.90;79.27
60101;BME280;45978;53.646;55.930;2022-08-02T02:55:55;99398.88;;;18.97;79.19
60101;BME280;45978;53.646;55.930;2022-08-02T02:56:57;99398.47;;;18.91;79.39
60101;BME280;45978;53.646;55.930;2022-08-02T02:57:59;99393.34;;;18.88;79.28
60101;BME280;45978;53.646;55.930;2022-08-02T02:59:03;99397.28;;;18.95;79.15
60101;BME280;45978;53.646;55.930;2022-08-02T03:00:09;99399.97;;;18.95;78.93
60101;BME280;45978;53.646;55.930;2022-08-02T03:01:14;99396.31;;;18.96;79.01
60101;BME280;45978;53.646;55.930;2022-08-02T03:02:29;99400.06;;;18.93;78.85
60101;BME280;45978;53.646;55.930;2022-08-02T03:03:31;99386.44;;;18.85;78.83
60101;BME280;45978;53.646;55.930;2022-08-02T03:04:33;99389.84;;;18.87;78.79
60101;BME280;45978;53.646;55.930;2022-08-02T03:05:36;99386.09;;;18.77;78.80
60101;BME280;45978;53.646;55.930;2022-08-02T03:06:38;99395.69;;;18.92;78.84
60101;BME280;45978;53.646;55.930;2022-08-02T03:07:43;99398.03;;;18.97;78.75
60101;BME280;45978;53.646;55.930;2022-08-02T03:08:46;99400.38;;;19.02;78.52
60101;BME280;45978;53.646;55.930;2022-08-02T03:09:54;99403.31;;;19.10;78.29
60101;BME280;45978;53.646;55.930;2022-08-02T03:11:01;99403.88;;;19.15;78.12
60101;BME280;45978;53.646;55.930;2022-08-02T03:12:04;99394.91;;;19.16;77.89
60101;BME280;45978;53.646;55.930;2022-08-02T03:13:06;99398.19;;;19.19;77.97
60101;BME280;45978;53.646;55.930;2022-08-02T03:14:09;99391.28;;;19.17;77.85
60101;BME280;45978;53.646;55.930;2022-08-02T03:15:11;99394.59;;;19.08;78.07
60101;BME280;45978;53.646;55.930;2022-08-02T03:16:15;99396.53;;;19.06;78.43
60101;BME280;45978;53.646;55.930;2022-08-02T03:17:16;99401.34;;;19.01;78.71
60101;BME280;45978;53.646;55.930;2022-08-02T03:18:38;99402.09;;;19.03;78.73
60101;BME280;45978;53.646;55.930;2022-08-02T03:19:40;99400.59;;;18.98;78.95
60101;BME280;45978;53.646;55.930;2022-08-02T03:20:42;99404.00;;;19.01;78.78
60101;BME280;45978;53.646;55.930;2022-08-02T03:21:47;99410.81;;;19.05;78.92
60101;BME280;45978;53.646;55.930;2022-08-02T03:22:49;99412.00;;;19.01;78.96
60101;BME280;45978;53.646;55.930;2022-08-02T03:23:50;99412.94;;;18.99;79.22
60101;BME280;45978;53.646;55.930;2022-08-02T03:24:51;99410.47;;;18.96;79.00
60101;BME280;45978;53.646;55.930;2022-08-02T03:25:54;99413.38;;;18.93;79.02
60101;BME280;45978;53.646;55.930;2022-08-02T03:26:58;99417.72;;;18.94;78.99
60101;BME280;45978;53.646;55.930;2022-08-02T03:28:10;99413.69;;;18.89;78.83
60101;BME280;45978;53.646;55.930;2022-08-02T03:29:11;99412.81;;;18.88;79.01
60101;BME280;45978;53.646;55.930;2022-08-02T03:30:13;99417.50;;;18.85;79.00
60101;BME280;45978;53.646;55.930;2022-08-02T03:31:14;99414.09;;;18.83;79.02
60101;BME280;45978;53.646;55.930;2022-08-02T03:32:18;99419.56;;;18.81;79.29
60101;BME280;45978;53.646;55.930;2022-08-02T03:33:24;99419.66;;;18.79;79.19
60101;BME280;45978;53.646;55.930;2022-08-02T03:34:26;99413.00;;;18.72;79.25
60101;BME280;45978;53.646;55.930;2022-08-02T03:35:27;99418.69;;;18.80;79.25
60101;BME280;45978;53.646;55.930;2022-08-02T03:36:31;99408.03;;;18.80;79.35
60101;BME280;45978;53.646;55.930;2022-08-02T03:37:35;99421.53;;;18.90;79.29
60101;BME280;45978;53.646;55.930;2022-08-02T03:38:37;99419.63;;;18.92;79.02
60101;BME280;45978;53.646;55.930;2022-08-02T03:39:39;99421.13;;;18.96;78.91
60101;BME280;45978;53.646;55.930;2022-08-02T03:40:44;99407.72;;;18.85;78.95
60101;BME280;45978;53.646;55.930;2022-08-02T03:41:47;99418.44;;;18.96;78.73
60101;BME280;45978;53.646;55.930;2022-08-02T03:42:51;99415.38;;;19.03;78.59
60101;BME280;45978;53.646;55.930;2022-08-02T03:43:53;99416.44;;;19.00;78.63
60101;BME280;45978;53.646;55.930;2022-08-02T03:45:00;99415.91;;;19.08;78.41
60101;BME280;45978;53.646;55.930;2022-08-02T03:46:07;99420.03;;;19.12;78.30
60101;BME280;45978;53.646;55.930;2022-08-02T03:47:09;99414.50;;;19.15;78.16
60101;BME280;45978;53.646;55.930;2022-08-02T03:48:14;99417.47;;;19.23;78.20
60101;BME280;45978;53.646;55.930;2022-08-02T03:49:17;99406.81;;;19.23;77.86
60101;BME280;45978;53.646;55.930;2022-08-02T03:50:19;99413.63;;;19.27;77.65
60101;BME280;45978;53.646;55.930;2022-08-02T03:51:25;99419.81;;;19.28;77.61
60101;BME280;45978;53.646;55.930;2022-08-02T03:52:27;99412.34;;;19.33;77.33
60101;BME280;45978;53.646;55.930;2022-08-02T03:53:29;99412.53;;;19.43;77.03
60101;BME280;45978;53.646;55.930;2022-08-02T03:54:31;99419.56;;;19.44;77.03
60101;BME280;45978;53.646;55.930;2022-08-02T03:55:34;99415.94;;;19.45;76.90
60101;BME280;45978;53.646;55.930;2022-08-02T03:56:35;99401.78;;;19.44;76.80
60101;BME280;45978;53.646;55.930;2022-08-02T03:57:38;99413.13;;;19.59;76.61
60101;BME280;45978;53.646;55.930;2022-08-02T03:58:40;99415.97;;;19.69;76.19
60101;BME280;45978;53.646;55.930;2022-08-02T03:59:43;99407.97;;;19.69;75.94
60101;BME280;45978;53.646;55.930;2022-08-02T04:00:48;99414.25;;;19.81;75.65
60101;BME280;45978;53.646;55.930;2022-08-02T04:01:49;99412.84;;;19.88;75.68
60101;BME280;45978;53.646;55.930;2022-08-02T04:02:51;99417.03;;;20.03;75.39
60101;BME280;45978;53.646;55.930;2022-08-02T04:03:52;99414.63;;;20.11;75.44
60101;BME280;45978;53.646;55.930;2022-08-02T04:04:54;99408.22;;;20.14;75.13
60101;BME280;45978;53.646;55.930;2022-08-02T04:05:56;99414.19;;;20.17;74.73
60101;BME280;45978;53.646;55.930;2022-08-02T04:06:57;99415.13;;;20.16;74.89
60101;BME280;45978;53.646;55.930;2022-08-02T04:07:59;99402.25;;;20.10;74.88
60101;BME280;45978;53.646;55.930;2022-08-02T04:09:00;99416.22;;;20.14;74.88
60101;BME280;45978;53.646;55.930;2022-08-02T04:10:02;99414.22;;;20.05;74.96
60101;BME280;45978;53.646;55.930;2022-08-02T04:11:05;99422.00;;;20.08;75.23
60101;BME280;45978;53.646;55.930;2022-08-02T04:12:25;99419.81;;;20.02;75.10
60101;BME280;45978;53.646;55.930;2022-08-02T04:13:32;99423.16;;;19.92;75.69
60101;BME280;45978;53.646;55.930;2022-08-02T04:14:34;99424.22;;;19.90;75.73
60101;BME280;45978;53.646;55.930;2022-08-02T04:15:36;99427.97;;;19.87;75.96
60101;BME280;45978;53.646;55.930;2022-08-02T04:17:29;99430.34;;;19.79;76.01
60101;BME280;45978;53.646;55.930;2022-08-02T04:18:05;99418.94;;;19.77;76.24
60101;BME280;45978;53.646;55.930;2022-08-02T04:19:09;99416.41;;;19.75;76.49
60101;BME280;45978;53.646;55.930;2022-08-02T04:20:17;99430.22;;;19.81;76.34
60101;BME280;45978;53.646;55.930;2022-08-02T04:21:21;99425.25;;;19.76;76.42
60101;BME280;45978;53.646;55.930;2022-08-02T04:22:46;99417.41;;;19.62;76.60
60101;BME280;45978;53.646;55.930;2022-08-02T04:23:51;99439.41;;;19.76;76.48
60101;BME280;45978;53.646;55.930;2022-08-02T04:24:58;99426.19;;;19.75;76.51
60101;BME280;45978;53.646;55.930;2022-08-02T04:26:00;99430.94;;;19.71;76.40
60101;BME280;45978;53.646;55.930;2022-08-02T04:27:04;99433.59;;;19.71;76.40
60101;BME280;45978;53.646;55.930;2022-08-02T04:28:08;99440.41;;;19.75;76.67
60101;BME280;45978;53.646;55.930;2022-08-02T04:29:11;99429.84;;;19.74;76.56
60101;BME280;45978;53.646;55.930;2022-08-02T04:30:15;99435.47;;;19.82;76.39
60101;BME280;45978;53.646;55.930;2022-08-02T04:31:17;99437.00;;;19.73;76.37
60101;BME280;45978;53.646;55.930;2022-08-02T04:32:19;99437.94;;;19.72;76.62
60101;BME280;45978;53.646;55.930;2022-08-02T04:33:22;99435.56;;;19.81;76.67
60101;BME280;45978;53.646;55.930;2022-08-02T04:34:24;99432.44;;;19.87;76.21
60101;BME280;45978;53.646;55.930;2022-08-02T04:35:26;99433.19;;;19.89;75.99
60101;BME280;45978;53.646;55.930;2022-08-02T04:36:28;99419.63;;;19.92;75.79
60101;BME280;45978;53.646;55.930;2022-08-02T04:37:29;99430.47;;;20.02;75.78
60101;BME280;45978;53.646;55.930;2022-08-02T04:38:30;99426.72;;;20.04;75.25
60101;BME280;45978;53.646;55.930;2022-08-02T04:39:33;99428.19;;;20.08;75.36
60101;BME280;45978;53.646;55.930;2022-08-02T04:40:34;99425.66;;;20.07;75.36
60101;BME280;45978;53.646;55.930;2022-08-02T04:41:41;99433.50;;;20.08;75.16
60101;BME280;45978;53.646;55.930;2022-08-02T04:42:43;99423.00;;;20.07;75.30
60101;BME280;45978;53.646;55.930;2022-08-02T04:43:45;99426.50;;;20.07;75.28
60101;BME280;45978;53.646;55.930;2022-08-02T04:44:51;99424.56;;;20.09;75.42
60101;BME280;45978;53.646;55.930;2022-08-02T04:45:54;99426.59;;;20.06;75.17
60101;BME280;45978;53.646;55.930;2022-08-02T04:46:55;99430.63;;;20.11;75.30
60101;BME280;45978;53.646;55.930;2022-08-02T04:47:58;99432.47;;;20.11;75.19
60101;BME280;45978;53.646;55.930;2022-08-02T04:48:59;99432.09;;;20.15;75.13
60101;BME280;45978;53.646;55.930;2022-08-02T04:50:00;99436.03;;;20.23;75.25
60101;BME280;45978;53.646;55.930;2022-08-02T04:51:02;99419.03;;;20.24;75.17
60101;BME280;45978;53.646;55.930;2022-08-02T04:52:03;99434.25;;;20.34;74.76
60101;BME280;45978;53.646;55.930;2022-08-02T04:53:05;99424.63;;;20.32;74.73
60101;BME280;45978;53.646;55.930;2022-08-02T04:54:09;99428.03;;;20.34;74.61
60101;BME280;45978;53.646;55.930;2022-08-02T04:55:10;99424.06;;;20.40;74.38
60101;BME280;45978;53.646;55.930;2022-08-02T04:56:12;99423.94;;;20.41;74.66
60101;BME280;45978;53.646;55.930;2022-08-02T04:57:13;99421.50;;;20.38;74.61
60101;BME280;45978;53.646;55.930;2022-08-02T04:58:33;99425.25;;;20.35;74.54
60101;BME280;45978;53.646;55.930;2022-08-02T04:59:40;99428.41;;;20.29;74.59
60101;BME280;45978;53.646;55.930;2022-08-02T05:00:44;99419.50;;;20.17;74.96
60101;BME280;45978;53.646;55.930;2022-08-02T05:01:46;99422.69;;;20.23;74.68
60101;BME280;45978;53.646;55.930;2022-08-02T05:02:47;99415.75;;;20.20;74.62
60101;BME280;45978;53.646;55.930;2022-08-02T05:03:52;99423.59;;;20.34;74.65
60101;BME280;45978;53.646;55.930;2022-08-02T05:04:54;99424.78;;;20.42;74.32
60101;BME280;45978;53.646;55.930;2022-08-02T05:05:56;99422.16;;;20.53;73.96
60101;BME280;45978;53.646;55.930;2022-08-02T05:06:57;99409.66;;;20.53;73.30
60101;BME280;45978;53.646;55.930;2022-08-02T05:07:58;99420.78;;;20.71;73.14
60101;BME280;45978;53.646;55.930;2022-08-02T05:09:01;99403.69;;;20.74;72.69
60101;BME280;45978;53.646;55.930;2022-08-02T05:10:03;99404.78;;;20.83;72.30
60101;BME280;45978;53.646;55.930;2022-08-02T05:11:05;99408.81;;;21.00;71.88
60101;BME280;45978;53.646;55.930;2022-08-02T05:12:07;99410.28;;;21.15;71.36
60101;BME280;45978;53.646;55.930;2022-08-02T05:13:08;99412.91;;;21.26;71.08
60101;BME280;45978;53.646;55.930;2022-08-02T05:14:09;99412.19;;;21.35;70.72
60101;BME280;45978;53.646;55.930;2022-08-02T05:15:12;99405.13;;;21.34;70.07
60101;BME280;45978;53.646;55.930;2022-08-02T05:16:19;99403.69;;;21.42;70.03
60101;BME280;45978;53.646;55.930;2022-08-02T05:17:24;99412.88;;;21.60;69.74
60101;BME280;45978;53.646;55.930;2022-08-02T05:18:47;99400.50;;;21.70;69.08
60101;BME280;45978;53.646;55.930;2022-08-02T05:19:52;99396.59;;;21.74;68.62
60101;BME280;45978;53.646;55.930;2022-08-02T05:20:53;99381.72;;;21.82;68.40
60101;BME280;45978;53.646;55.930;2022-08-02T05:21:54;99401.84;;;21.97;68.25
60101;BME280;45978;53.646;55.930;2022-08-02T05:22:56;99405.00;;;22.02;68.17
60101;BME280;45978;53.646;55.930;2022-08-02T05:23:57;99403.09;;;21.93;68.10
60101;BME280;45978;53.646;55.930;2022-08-02T05:24:58;99394.03;;;21.84;67.79
60101;BME280;45978;53.646;55.930;2022-08-02T05:26:00;99405.47;;;21.75;68.00
60101;BME280;45978;53.646;55.930;2022-08-02T05:27:01;99404.72;;;21.84;67.88
60101;BME280;45978;53.646;55.930;2022-08-02T05:28:03;99397.28;;;21.88;67.64
60101;BME280;45978;53.646;55.930;2022-08-02T05:29:04;99393.28;;;21.82;67.89
60101;BME280;45978;53.646;55.930;2022-08-02T05:30:06;99389.50;;;21.85;67.70
60101;BME280;45978;53.646;55.930;2022-08-02T05:31:09;99402.94;;;22.06;67.37
60101;BME280;45978;53.646;55.930;2022-08-02T05:32:14;99398.44;;;22.06;67.15
60101;BME280;45978;53.646;55.930;2022-08-02T05:33:15;99401.00;;;22.29;66.32
60101;BME280;45978;53.646;55.930;2022-08-02T05:34:17;99399.28;;;22.39;65.99
60101;BME280;45978;53.646;55.930;2022-08-02T05:35:22;99392.88;;;22.51;65.46
60101;BME280;45978;53.646;55.930;2022-08-02T05:36:25;99398.59;;;22.68;65.05
60101;BME280;45978;53.646;55.930;2022-08-02T05:37:26;99402.63;;;22.83;64.65
60101;BME280;45978;53.646;55.930;2022-08-02T05:38:27;99402.03;;;23.01;63.89
60101;BME280;45978;53.646;55.930;2022-08-02T05:39:32;99397.91;;;23.27;63.27
60101;BME280;45978;53.646;55.930;2022-08-02T05:40:33;99399.94;;;23.45;62.80
60101;BME280;45978;53.646;55.930;2022-08-02T05:41:34;99394.59;;;23.55;62.18
60101;BME280;45978;53.646;55.930;2022-08-02T05:42:36;99393.53;;;23.86;61.12
60101;BME280;45978;53.646;55.930;2022-08-02T05:43:37;99390.34;;;24.12;60.37